Terminal Aerodrome Forecast
Issued by NWS

Home | Current Version | Previous Version | Text Only | Print | Product List | Glossary Off
Versions: 1 2 3 4 5 6 7 8 9 10 11 12 13 14 15 16 17 18 19 20

172
FTUS41 KCLE 082006 AAA
TAFFDY
TAF AMD
KFDY 082006Z 0820/0918 29012KT P6SM SCT028 OVC035
      TEMPO 0820/0822 BKN028
     FM082200 30008KT P6SM OVC025
      TEMPO 0822/0902 -SHSN BKN025
     FM090200 30006KT P6SM -SHSN OVC025
     FM090800 27008KT 5SM -SHSN OVC015=

USA.gov is the U.S. government's official web portal to all federal, state and local government web resources and services.